Kezdőlap
METAR-TAF:

METAR-TAF

Repülőterek :

Sainte-Marie, Madagaszkár

földrajzi szélesség: 17-05S, földrajzi hosszúság: 049-49E, magasság: 2 m

Jelenlegi meteorológiai megfigyelések

A jelentés 57 perccel ezelõtt készült, 03:00 UTC
Nyugat-délnyugati szél 8 kt
Hőmérséklet 25°C
Páratartalom 94%
Légköri nyomás 1011 hPa
Látótávolság 10 km, vagy több
Szakadozott felhőzet 1700 lábon
Záporok a közelben,

METAR: FMMS 210300Z 24008KT 9999 VCSH BKN017 25/24 Q1011

Idő: 06:57 (03:57 UTC)


TAF: hiányzik

Meteorológiai megfigyelések és előrejelzések több, mint 4000 repülőtéren (METAR és TAF jelentéseket).

A térképen piros és sárga pontok jelzik az elérhető meteorológiai állomásokat.

Mozgassa az egeret a pont fölött, hogy megjelenjen az állomás neve.

Azután kattintson az időjárási megfigyelések és előrejelzések megtekintéséhez.

A térkép megváltoztatása: kattintson a fekete keresztel jelölt zöld gombra ráközelítéshez, a vonallal jelölt zöld gombra távolításhoz, vagy a zöld nyilakra a szomszédos térképek eléréséhez.


METAR-TAF: